Time;durP1;ratioP1;P1;durP2;ratioP2;P2;SDS_P1;SDS_P2;PMS_P1;PMS_P2;Temp;Humidity;BMP_temperature;BMP_pressure;BME280_temperature;BME280_humidity;BME280_pressure;Samples;Min_cycle;Max_cycle;Signal;HPM_P1;HPM_P2
2022/12/13 00:01:50;;;;;;;15.13;9.50;;;;;;;-9.85;100.00;95729.03;4911258;28;102229;-58
2022/12/13 00:04:18;;;;;;;13.03;9.37;;;;;;;-9.93;100.00;95726.38;4894906;28;104928;-58
2022/12/13 00:06:46;;;;;;;15.93;9.60;;;;;;;-9.98;100.00;95723.41;4894026;28;105524;-59
2022/12/13 00:09:14;;;;;;;14.87;9.50;;;;;;;-10.12;100.00;95732.44;4911950;28;101866;-58
2022/12/13 00:11:41;;;;;;;12.43;8.87;;;;;;;-10.19;100.00;95726.22;4894864;28;105355;-58
2022/12/13 00:14:08;;;;;;;16.30;9.00;;;;;;;-10.26;100.00;95721.81;4911626;28;102580;-58
2022/12/13 00:16:37;;;;;;;14.03;8.23;;;;;;;-10.40;100.00;95715.34;4895131;28;102040;-58
2022/12/13 00:19:04;;;;;;;13.87;9.53;;;;;;;-10.32;100.00;95718.03;4894190;28;105883;-59
2022/12/13 00:21:32;;;;;;;11.33;8.50;;;;;;;-10.15;100.00;95727.56;4896751;28;105854;-58
2022/12/13 00:24:01;;;;;;;12.83;8.60;;;;;;;-10.16;100.00;95725.94;4894713;28;105089;-58
2022/12/13 00:26:30;;;;;;;12.67;8.83;;;;;;;-10.07;100.00;95719.97;4894314;28;105367;-59
2022/12/13 00:28:59;;;;;;;11.83;7.77;;;;;;;-9.81;100.00;95717.50;4911951;28;101991;-58
2022/12/13 00:31:26;;;;;;;11.90;7.87;;;;;;;-10.17;100.00;95711.47;4912731;28;102833;-58
2022/12/13 00:33:55;;;;;;;10.00;7.13;;;;;;;-10.44;100.00;95716.56;4914018;28;102704;-58
2022/12/13 00:36:22;;;;;;;12.20;8.17;;;;;;;-10.48;100.00;95717.00;4897203;28;101834;-58
2022/12/13 00:38:59;;;;;;;11.03;6.93;;;;;;;-10.36;100.00;95719.25;4896960;28;105338;-59
2022/12/13 00:41:27;;;;;;;15.17;8.53;;;;;;;-10.13;100.00;95724.84;4896683;28;105815;-58
2022/12/13 00:43:54;;;;;;;14.97;8.83;;;;;;;-9.86;100.00;95715.34;4918944;28;101868;-58
2022/12/13 00:46:21;;;;;;;19.50;10.83;;;;;;;-9.68;100.00;95715.41;4898343;28;105555;-58
2022/12/13 00:48:51;;;;;;;17.13;9.67;;;;;;;-9.55;100.00;95715.88;4897124;28;102042;-58
2022/12/13 00:51:20;;;;;;;24.30;11.27;;;;;;;-9.38;100.00;95713.28;4897448;28;105607;-58
2022/12/13 00:53:48;;;;;;;17.50;10.73;;;;;;;-9.50;100.00;95708.50;4912726;28;102749;-58
2022/12/13 00:56:18;;;;;;;16.47;10.00;;;;;;;-9.53;100.00;95703.66;4913680;28;101723;-59
2022/12/13 00:58:45;;;;;;;19.83;10.60;;;;;;;-9.71;100.00;95706.19;4913670;28;102309;-58
2022/12/13 01:01:14;;;;;;;16.87;10.00;;;;;;;-9.45;100.00;95708.88;4912692;28;102538;-58
2022/12/13 01:03:42;;;;;;;16.33;10.00;;;;;;;-9.36;100.00;95711.41;4895987;28;101898;-58
2022/12/13 01:06:11;;;;;;;17.70;10.67;;;;;;;-9.36;100.00;95706.25;4916755;28;102421;-58
2022/12/13 01:08:40;;;;;;;18.17;10.30;;;;;;;-10.01;100.00;95703.94;4895944;28;102310;-58
2022/12/13 01:11:08;;;;;;;18.40;9.63;;;;;;;-10.06;100.00;95701.00;4913106;28;102576;-58
2022/12/13 01:13:35;;;;;;;25.30;9.97;;;;;;;-10.00;100.00;95697.03;4895875;28;105415;-58
2022/12/13 01:16:03;;;;;;;18.60;9.73;;;;;;;-10.08;100.00;95689.25;4913703;28;102211;-59
2022/12/13 01:18:31;;;;;;;18.87;11.00;;;;;;;-10.11;100.00;95694.66;4896753;28;105374;-58
2022/12/13 01:20:59;;;;;;;21.23;11.00;;;;;;;-10.06;100.00;95695.88;4912405;28;102032;-58
2022/12/13 01:23:27;;;;;;;15.20;10.23;;;;;;;-9.99;100.00;95696.06;4912879;28;101860;-58
2022/12/13 01:25:55;;;;;;;16.03;10.60;;;;;;;-9.90;100.00;95692.66;4913151;28;103045;-59
2022/12/13 01:28:22;;;;;;;18.73;10.40;;;;;;;-9.77;100.00;95688.00;4898296;28;104055;-58
2022/12/13 01:30:56;;;;;;;18.30;11.13;;;;;;;-10.08;100.00;95687.47;4895407;28;104921;-58
2022/12/13 01:33:24;;;;;;;16.80;10.10;;;;;;;-10.08;100.00;95687.47;4894526;28;105628;-58
2022/12/13 01:35:50;;;;;;;16.17;10.07;;;;;;;-9.94;100.00;95674.13;4895272;28;102217;-58
2022/12/13 01:38:18;;;;;;;16.63;9.07;;;;;;;-10.02;100.00;95671.47;4912681;28;102374;-58
2022/12/13 01:40:46;;;;;;;14.43;9.60;;;;;;;-9.73;100.00;95679.00;4896000;28;105127;-58
2022/12/13 01:43:15;;;;;;;18.47;9.93;;;;;;;-9.88;100.00;95678.69;4913071;28;102402;-58
2022/12/13 01:45:43;;;;;;;15.13;9.43;;;;;;;-10.09;100.00;95674.78;4896252;28;105229;-59
2022/12/13 01:48:14;;;;;;;15.50;10.00;;;;;;;-9.95;100.00;95669.94;4896050;28;105741;-59
2022/12/13 01:50:44;;;;;;;16.00;9.40;;;;;;;-10.42;100.00;95676.13;4916252;28;101693;-58
2022/12/13 01:53:15;;;;;;;12.93;8.70;;;;;;;-10.68;100.00;95667.41;4912390;28;103220;-58
2022/12/13 01:55:45;;;;;;;16.57;9.20;;;;;;;-10.07;100.00;95668.56;4896069;28;101919;-58
2022/12/13 01:58:15;;;;;;;13.40;8.80;;;;;;;-9.78;100.00;95665.78;4913744;28;102358;-58
2022/12/13 02:00:45;;;;;;;24.10;10.17;;;;;;;-9.87;100.00;95659.72;4895711;28;105985;-58
2022/12/13 02:03:13;;;;;;;15.03;9.17;;;;;;;-10.00;100.00;95650.75;4913074;28;102116;-58
2022/12/13 02:05:44;;;;;;;58.70;10.20;;;;;;;-10.48;100.00;95658.72;4897440;28;105377;-58
2022/12/13 02:08:13;;;;;;;17.53;9.43;;;;;;;-10.28;100.00;95644.03;4895521;28;105800;-58
2022/12/13 02:10:42;;;;;;;81.07;13.50;;;;;;;-10.37;100.00;95644.91;4899409;28;102100;-58
2022/12/13 02:13:09;;;;;;;43.47;11.20;;;;;;;-10.24;100.00;95638.47;4911769;28;103306;-58
2022/12/13 02:15:45;;;;;;;31.33;11.23;;;;;;;-9.97;100.00;95632.47;4895372;28;101776;-58
2022/12/13 02:18:55;;;;;;;93.73;16.90;;;;;;;-10.08;100.00;95627.56;4897167;28;101773;-59
2022/12/13 02:21:29;;;;;;;26.97;11.67;;;;;;;-9.96;100.00;95627.19;4913889;28;103157;-59
2022/12/13 02:24:41;;;;;;;17.03;10.13;;;;;;;-9.76;100.00;95615.81;4897558;28;102251;-58
2022/12/13 02:27:13;;;;;;;21.60;10.97;;;;;;;-9.60;100.00;95613.38;4878154;28;105799;-58
2022/12/13 02:30:10;;;;;;;23.23;11.70;;;;;;;-9.59;100.00;95617.56;4896167;28;103970;-58
2022/12/13 02:32:52;;;;;;;35.00;12.03;;;;;;;-9.58;100.00;95606.34;4890281;28;102024;-58
2022/12/13 02:35:27;;;;;;;47.47;10.30;;;;;;;-9.71;100.00;95605.09;4899626;28;105701;-58
2022/12/13 02:38:01;;;;;;;17.90;10.00;;;;;;;-9.89;100.00;95605.09;4896400;28;102366;-58
2022/12/13 02:40:35;;;;;;;27.17;10.40;;;;;;;-9.78;100.00;95601.47;4895005;28;104191;-58
2022/12/13 02:43:06;;;;;;;14.13;9.67;;;;;;;-9.93;100.00;95601.19;4895603;28;105507;-58
2022/12/13 02:45:38;;;;;;;14.60;9.87;;;;;;;-9.94;100.00;95597.00;4913984;28;101708;-58
2022/12/13 02:48:10;;;;;;;16.87;9.43;;;;;;;-9.83;100.00;95607.06;4896082;28;105127;-58
2022/12/13 02:50:38;;;;;;;16.43;10.43;;;;;;;-9.65;100.00;95599.38;4895553;28;105544;-58
2022/12/13 02:53:07;;;;;;;21.50;11.10;;;;;;;-9.55;100.00;95598.31;4895919;28;101939;-56
2022/12/13 02:55:35;;;;;;;25.43;10.70;;;;;;;-9.66;100.00;95595.97;4894333;28;105807;-58
2022/12/13 02:58:02;;;;;;;21.23;11.17;;;;;;;-9.78;100.00;95589.44;4898310;28;105126;-59
2022/12/13 03:00:41;;;;;;;16.83;10.27;;;;;;;-9.81;100.00;95589.72;4896991;28;105781;-58
2022/12/13 03:03:21;;;;;;;16.10;10.13;;;;;;;-9.84;100.00;95590.03;4895305;28;105184;-58
2022/12/13 03:08:52;;;;;;;17.83;10.73;;;;;;;-9.69;100.00;95575.72;4894046;28;105621;-58
2022/12/13 03:11:20;;;;;;;15.33;10.13;;;;;;;-9.70;100.00;95578.41;4893348;28;105650;-58
2022/12/13 03:13:51;;;;;;;19.10;10.77;;;;;;;-9.90;100.00;95582.09;4893718;28;102160;-59
2022/12/13 03:16:29;;;;;;;14.60;9.87;;;;;;;-9.59;100.00;95576.41;4895255;28;104804;-58
2022/12/13 03:19:00;;;;;;;18.57;10.90;;;;;;;-10.27;100.00;95578.81;4896410;28;105936;-58
2022/12/13 03:21:28;;;;;;;14.60;10.17;;;;;;;-10.27;100.00;95577.09;4898506;28;102062;-58
2022/12/13 03:23:55;;;;;;;16.57;10.27;;;;;;;-10.37;100.00;95573.75;4895739;28;104244;-58
2022/12/13 03:26:25;;;;;;;15.67;10.27;;;;;;;-10.53;100.00;95573.56;4914210;28;101928;-58
2022/12/13 03:28:53;;;;;;;18.73;10.73;;;;;;;-10.54;100.00;95569.38;4913935;28;102027;-58
2022/12/13 03:31:22;;;;;;;16.17;9.80;;;;;;;-10.45;100.00;95560.00;4913245;28;102564;-59
2022/12/13 03:33:48;;;;;;;20.30;10.37;;;;;;;-10.42;100.00;95564.88;4913148;28;101913;-58
2022/12/13 03:36:18;;;;;;;19.47;10.43;;;;;;;-10.38;100.00;95567.00;4895606;28;105558;-58
2022/12/13 03:38:46;;;;;;;16.50;10.47;;;;;;;-10.17;100.00;95572.69;4895974;28;105473;-58
2022/12/13 03:41:18;;;;;;;17.40;10.03;;;;;;;-10.03;100.00;95571.34;4896110;28;101984;-58
2022/12/13 03:43:46;;;;;;;15.73;10.13;;;;;;;-9.80;100.00;95563.06;4899310;28;105146;-58
2022/12/13 03:46:14;;;;;;;18.30;10.40;;;;;;;-9.81;100.00;95570.94;4912746;28;101718;-58
2022/12/13 03:48:42;;;;;;;18.97;10.50;;;;;;;-9.66;100.00;95567.69;4912955;28;102743;-58
2022/12/13 03:51:09;;;;;;;16.90;9.37;;;;;;;-10.26;100.00;95568.41;4913011;28;102524;-58
2022/12/13 03:53:37;;;;;;;15.10;9.70;;;;;;;-10.30;100.00;95564.50;4896275;28;102144;-58
2022/12/13 03:56:05;;;;;;;13.07;9.27;;;;;;;-10.15;100.00;95557.94;4897145;28;104806;-58
2022/12/13 03:58:34;;;;;;;14.70;9.30;;;;;;;-9.88;100.00;95554.47;4895956;28;105292;-58
2022/12/13 04:01:03;;;;;;;16.60;10.10;;;;;;;-9.74;100.00;95547.06;4897290;28;102106;-58
2022/12/13 04:03:30;;;;;;;14.57;9.43;;;;;;;-9.48;100.00;95547.88;4895335;28;105278;-58
2022/12/13 04:05:56;;;;;;;19.40;10.03;;;;;;;-9.49;100.00;95541.13;4899562;28;101816;-58
2022/12/13 04:08:23;;;;;;;17.00;10.27;;;;;;;-9.42;100.00;95549.06;4899057;28;105408;-58
2022/12/13 04:10:52;;;;;;;17.03;11.00;;;;;;;-9.51;100.00;95543.06;4899003;28;105764;-58
2022/12/13 04:13:32;;;;;;;19.83;10.13;;;;;;;-9.66;100.00;95544.53;4897901;28;101893;-58
2022/12/13 04:15:59;;;;;;;18.23;9.70;;;;;;;-10.04;100.00;95546.66;4916729;28;102797;-58
2022/12/13 04:18:26;;;;;;;17.47;10.27;;;;;;;-10.17;100.00;95544.44;4899718;28;105094;-58
2022/12/13 04:20:53;;;;;;;19.17;10.17;;;;;;;-9.92;100.00;95537.72;4899075;28;101946;-58
2022/12/13 04:23:22;;;;;;;18.73;11.30;;;;;;;-9.69;100.00;95539.69;4913635;28;102655;-58
2022/12/13 04:25:49;;;;;;;16.13;9.80;;;;;;;-9.63;100.00;95540.84;4919836;28;102735;-58
2022/12/13 04:28:18;;;;;;;16.10;10.33;;;;;;;-9.90;100.00;95539.19;4900395;28;105666;-58
2022/12/13 04:30:45;;;;;;;14.57;9.63;;;;;;;-10.00;100.00;95535.06;4915716;28;103192;-58
2022/12/13 04:33:12;;;;;;;17.70;9.27;;;;;;;-10.25;100.00;95530.69;4898265;28;101988;-58
2022/12/13 04:35:40;;;;;;;15.30;10.13;;;;;;;-10.28;100.00;95531.78;4899712;28;105573;-58
2022/12/13 04:38:06;;;;;;;13.03;8.87;;;;;;;-9.93;100.00;95528.41;4898339;28;105709;-58
2022/12/13 04:40:33;;;;;;;14.53;9.20;;;;;;;-9.79;100.00;95523.53;4899495;28;102299;-58
2022/12/13 04:43:00;;;;;;;14.03;8.90;;;;;;;-10.40;100.00;95527.00;4898673;28;105699;-59
2022/12/13 04:45:29;;;;;;;12.87;8.47;;;;;;;-10.36;100.00;95525.75;4914030;28;104218;-59
2022/12/13 04:47:56;;;;;;;12.67;8.37;;;;;;;-10.19;100.00;95520.63;4900457;28;102034;-59
2022/12/13 04:50:23;;;;;;;15.10;9.00;;;;;;;-10.16;100.00;95520.34;4896513;28;105464;-58
2022/12/13 04:52:50;;;;;;;13.83;8.53;;;;;;;-10.30;100.00;95527.75;4896926;28;101949;-58
2022/12/13 04:55:16;;;;;;;13.77;9.17;;;;;;;-10.43;100.00;95517.00;4896888;28;105610;-59
2022/12/13 04:57:43;;;;;;;15.20;9.00;;;;;;;-10.36;100.00;95518.84;4913412;28;102795;-58
2022/12/13 05:00:13;;;;;;;12.43;8.50;;;;;;;-10.10;100.00;95527.47;4914248;28;101920;-59
2022/12/13 05:02:42;;;;;;;13.00;7.93;;;;;;;-10.26;100.00;95516.22;4914302;28;102888;-58
2022/12/13 05:05:10;;;;;;;16.63;8.60;;;;;;;-10.57;100.00;95525.19;4913574;28;102613;-59
2022/12/13 05:07:38;;;;;;;14.03;9.10;;;;;;;-10.55;100.00;95521.53;4914016;28;101818;-58
2022/12/13 05:10:06;;;;;;;12.70;8.17;;;;;;;-10.83;100.00;95519.13;4917088;28;102919;-58
2022/12/13 05:12:32;;;;;;;12.90;8.47;;;;;;;-10.80;100.00;95518.84;4896677;28;102009;-59
2022/12/13 05:14:59;;;;;;;12.30;8.23;;;;;;;-10.99;100.00;95519.72;4913906;28;101851;-59
2022/12/13 05:17:26;;;;;;;15.10;8.30;;;;;;;-10.99;100.00;95509.47;4895224;28;105771;-59
2022/12/13 05:19:55;;;;;;;19.10;8.73;;;;;;;-11.06;100.00;95505.81;4914064;28;101867;-58
2022/12/13 05:22:21;;;;;;;15.00;8.47;;;;;;;-10.98;100.00;95513.66;4913807;28;102559;-59
2022/12/13 05:24:49;;;;;;;14.63;7.80;;;;;;;-11.05;100.00;95504.91;4895890;28;105540;-59
2022/12/13 05:27:16;;;;;;;12.90;7.80;;;;;;;-11.15;100.00;95499.00;4896426;28;101844;-59
2022/12/13 05:29:43;;;;;;;13.87;8.37;;;;;;;-11.16;100.00;95496.56;4913959;28;102356;-58
2022/12/13 05:32:10;;;;;;;13.53;7.90;;;;;;;-11.08;100.00;95496.66;4916069;28;102661;-59
2022/12/13 05:34:37;;;;;;;13.93;7.50;;;;;;;-11.24;100.00;95493.91;4913627;28;101737;-59
2022/12/13 05:37:05;;;;;;;18.13;8.80;;;;;;;-11.11;100.00;95504.66;4895652;28;106036;-59
2022/12/13 05:39:32;;;;;;;16.80;8.17;;;;;;;-11.00;100.00;95500.16;4913643;28;102138;-59
2022/12/13 05:41:59;;;;;;;16.27;8.30;;;;;;;-10.92;100.00;95500.25;4913676;28;102369;-59
2022/12/13 05:44:26;;;;;;;14.93;7.50;;;;;;;-11.04;100.00;95496.25;4895587;28;105466;-59
2022/12/13 05:46:53;;;;;;;16.47;8.00;;;;;;;-10.85;100.00;95500.50;4895634;28;101925;-59
2022/12/13 05:49:20;;;;;;;17.40;9.60;;;;;;;-10.77;100.00;95498.81;4896437;28;105131;-59
2022/12/13 05:51:47;;;;;;;19.00;9.40;;;;;;;-10.67;100.00;95507.28;4912893;28;102796;-59
2022/12/13 05:54:15;;;;;;;15.63;8.67;;;;;;;-10.76;100.00;95510.72;4916875;28;101854;-59
2022/12/13 05:56:42;;;;;;;22.63;9.63;;;;;;;-11.31;100.00;95503.91;4895366;28;105826;-59
2022/12/13 05:59:09;;;;;;;21.43;9.57;;;;;;;-11.02;100.00;95503.81;4895940;28;102106;-59
2022/12/13 06:01:37;;;;;;;24.53;10.77;;;;;;;-10.71;100.00;95505.13;4895957;28;104942;-58
2022/12/13 06:04:06;;;;;;;15.37;9.90;;;;;;;-10.40;100.00;95494.41;4894660;28;105485;-59
2022/12/13 06:06:32;;;;;;;13.93;9.30;;;;;;;-10.47;100.00;95490.78;4913438;28;101836;-59
2022/12/13 06:08:59;;;;;;;14.80;9.90;;;;;;;-10.18;100.00;95496.56;4895976;28;103726;-59
2022/12/13 06:11:28;;;;;;;17.27;10.07;;;;;;;-9.95;100.00;95502.84;4894955;28;106057;-59
2022/12/13 06:13:55;;;;;;;14.93;10.13;;;;;;;-10.01;100.00;95500.84;4898242;28;101893;-58
2022/12/13 06:16:22;;;;;;;19.03;10.50;;;;;;;-10.26;100.00;95504.19;4911719;28;103316;-58
2022/12/13 06:18:49;;;;;;;22.07;10.20;;;;;;;-10.27;100.00;95500.00;4894673;28;101954;-59
2022/12/13 06:21:16;;;;;;;30.97;12.53;;;;;;;-10.37;100.00;95495.88;4912336;28;102506;-58
2022/12/13 06:23:42;;;;;;;24.10;12.30;;;;;;;-10.54;100.00;95505.16;4893700;28;105326;-58
2022/12/13 06:26:09;;;;;;;26.67;12.53;;;;;;;-10.58;100.00;95498.69;4894608;28;102113;-59
2022/12/13 06:28:38;;;;;;;38.93;14.93;;;;;;;-10.40;100.00;95499.56;4894105;28;105299;-59
2022/12/13 06:31:05;;;;;;;67.13;21.23;;;;;;;-10.04;100.00;95497.81;4893515;28;105465;-59
2022/12/13 06:33:35;;;;;;;106.47;30.73;;;;;;;-9.89;100.00;95503.97;4894192;28;101989;-59
2022/12/13 06:36:02;;;;;;;54.37;17.50;;;;;;;-9.81;100.00;95504.84;4914686;28;102912;-59
2022/12/13 06:38:30;;;;;;;35.40;13.57;;;;;;;-9.70;100.00;95511.53;4894348;28;101960;-59
2022/12/13 06:41:07;;;;;;;25.90;12.20;;;;;;;-9.68;100.00;95512.19;4911691;28;102554;-59
2022/12/13 06:43:33;;;;;;;27.77;14.40;;;;;;;-9.76;100.00;95514.72;4893721;28;105566;-58
2022/12/13 06:46:05;;;;;;;30.67;15.60;;;;;;;-9.86;100.00;95514.00;4911978;28;102204;-59
2022/12/13 06:48:33;;;;;;;38.37;15.37;;;;;;;-9.85;100.00;95511.28;4894184;28;105672;-59
2022/12/13 06:51:01;;;;;;;23.90;13.10;;;;;;;-10.05;100.00;95517.53;4911086;28;102675;-58
2022/12/13 06:53:29;;;;;;;22.97;12.97;;;;;;;-10.03;100.00;95519.94;4894341;28;101945;-59
2022/12/13 06:55:56;;;;;;;28.67;11.47;;;;;;;-9.94;100.00;95526.75;4911811;28;102797;-59
2022/12/13 06:58:23;;;;;;;16.17;10.00;;;;;;;-10.03;100.00;95525.88;4896606;28;105847;-59
2022/12/13 07:00:50;;;;;;;20.07;11.47;;;;;;;-9.97;100.00;95527.06;4894203;28;105962;-59
2022/12/13 07:03:19;;;;;;;26.53;13.03;;;;;;;-9.83;100.00;95532.50;4910733;28;102008;-59
2022/12/13 07:05:46;;;;;;;35.40;14.27;;;;;;;-9.64;100.00;95526.38;4893815;28;102288;-59
2022/12/13 07:08:13;;;;;;;25.97;11.17;;;;;;;-9.65;100.00;95527.34;4894034;28;104997;-59
2022/12/13 07:10:40;;;;;;;23.27;10.83;;;;;;;-9.68;100.00;95520.72;4893417;28;105696;-59
2022/12/13 07:13:07;;;;;;;21.17;11.50;;;;;;;-9.56;100.00;95529.00;4893602;28;101907;-58
2022/12/13 07:15:34;;;;;;;25.83;13.17;;;;;;;-9.63;100.00;95518.53;4893922;28;104905;-59
2022/12/13 07:18:01;;;;;;;24.93;14.67;;;;;;;-9.70;100.00;95512.34;4893142;28;104998;-59
2022/12/13 07:20:29;;;;;;;25.30;13.77;;;;;;;-9.67;100.00;95517.19;4897143;28;101882;-59
2022/12/13 07:22:56;;;;;;;23.03;12.43;;;;;;;-9.74;100.00;95529.03;4893419;28;104059;-59
2022/12/13 07:25:23;;;;;;;26.17;14.60;;;;;;;-9.67;100.00;95535.22;4893897;28;102043;-59
2022/12/13 07:27:56;;;;;;;34.87;18.30;;;;;;;-9.70;100.00;95535.50;4893633;28;104938;-59
2022/12/13 07:30:23;;;;;;;28.10;16.17;;;;;;;-9.58;100.00;95531.75;4893279;28;106027;-59
2022/12/13 07:32:50;;;;;;;34.17;18.03;;;;;;;-9.37;100.00;95537.34;4893133;28;101938;-59
2022/12/13 07:35:17;;;;;;;33.83;16.23;;;;;;;-9.41;100.00;95532.66;4892750;28;105256;-59
2022/12/13 07:37:45;;;;;;;23.93;14.10;;;;;;;-9.56;100.00;95534.97;4892739;28;105700;-59
2022/12/13 07:40:12;;;;;;;31.53;16.07;;;;;;;-9.69;100.00;95534.56;4893269;28;101947;-59
2022/12/13 07:42:39;;;;;;;32.83;16.37;;;;;;;-9.36;100.00;95538.16;4896479;28;105132;-59
2022/12/13 07:45:07;;;;;;;29.33;15.47;;;;;;;-9.10;100.00;95539.00;4893467;28;102055;-59
2022/12/13 07:47:33;;;;;;;24.97;14.57;;;;;;;-9.18;100.00;95539.75;4893411;28;105412;-59
2022/12/13 07:50:00;;;;;;;25.60;14.67;;;;;;;-9.13;100.00;95540.09;4892832;28;103981;-59
2022/12/13 07:52:27;;;;;;;32.60;16.37;;;;;;;-9.20;100.00;95541.66;4893323;28;102016;-58
2022/12/13 07:54:55;;;;;;;26.37;15.93;;;;;;;-9.20;100.00;95543.41;4880712;28;105229;-58
2022/12/13 07:57:22;;;;;;;24.50;15.03;;;;;;;-9.21;100.00;95537.44;4863920;28;105729;-59
2022/12/13 07:59:49;;;;;;;32.27;18.10;;;;;;;-9.02;100.00;95524.38;4857163;28;102370;-59
2022/12/13 08:02:16;;;;;;;27.67;16.80;;;;;;;-8.79;100.00;95527.25;4855486;28;105248;-58
2022/12/13 08:04:43;;;;;;;27.97;15.03;;;;;;;-8.82;100.00;95527.53;4863751;28;104131;-58
2022/12/13 08:07:10;;;;;;;24.70;14.43;;;;;;;-9.09;100.00;95528.53;4862264;28;105230;-59
2022/12/13 08:09:37;;;;;;;21.60;14.23;;;;;;;-8.85;100.00;95520.13;4860396;28;105348;-59
2022/12/13 08:12:06;;;;;;;26.90;15.17;;;;;;;-9.12;100.00;95526.25;4863692;28;102064;-59
2022/12/13 08:14:33;;;;;;;25.10;14.70;;;;;;;-9.17;100.00;95525.91;4863064;28;105040;-59
2022/12/13 08:17:00;;;;;;;20.30;13.40;;;;;;;-8.71;100.00;95522.13;4866206;28;104241;-59
2022/12/13 08:19:27;;;;;;;19.60;12.87;;;;;;;-8.61;100.00;95523.59;4862601;28;101912;-59
2022/12/13 08:21:55;;;;;;;21.80;13.23;;;;;;;-8.45;100.00;95531.41;4855282;28;104854;-59
2022/12/13 08:24:23;;;;;;;25.90;13.60;;;;;;;-8.49;100.00;95522.38;4856823;28;105607;-58
2022/12/13 08:26:49;;;;;;;20.77;12.90;;;;;;;-8.51;100.00;95520.94;4859073;28;105266;-59
2022/12/13 08:29:18;;;;;;;17.80;12.20;;;;;;;-8.76;100.00;95524.34;4864533;28;105427;-59
2022/12/13 08:31:45;;;;;;;16.97;11.93;;;;;;;-8.81;100.00;95522.25;4862434;28;102176;-59
2022/12/13 08:34:12;;;;;;;19.40;11.53;;;;;;;-8.41;100.00;95524.97;4909315;28;102860;-59
2022/12/13 08:36:39;;;;;;;17.77;11.33;;;;;;;-8.38;100.00;95522.09;4891114;28;105525;-58
2022/12/13 08:39:05;;;;;;;17.23;12.03;;;;;;;-8.34;100.00;95520.78;4892535;28;102163;-59
2022/12/13 08:41:32;;;;;;;15.93;10.87;;;;;;;-8.20;100.00;95517.63;4893136;28;103681;-59
2022/12/13 08:43:59;;;;;;;18.47;12.00;;;;;;;-8.08;100.00;95518.91;4892211;28;105814;-59
2022/12/13 08:46:27;;;;;;;22.67;13.33;;;;;;;-7.89;100.00;95525.53;4896125;28;102005;-59
2022/12/13 08:48:54;;;;;;;19.73;12.23;;;;;;;-7.70;100.00;95531.22;4891957;28;105061;-59
2022/12/13 08:51:23;;;;;;;14.97;11.20;;;;;;;-7.68;100.00;95528.47;4892837;28;102015;-59
2022/12/13 08:53:50;;;;;;;15.83;11.47;;;;;;;-7.54;100.00;95520.06;4894913;28;105684;-59
2022/12/13 08:56:19;;;;;;;14.60;9.43;;;;;;;-7.55;100.00;95524.44;4913133;28;102592;-59
2022/12/13 08:58:50;;;;;;;19.57;10.73;;;;;;;-7.52;100.00;95518.16;4896809;28;101775;-59
2022/12/13 09:01:18;;;;;;;18.83;11.60;;;;;;;-7.61;100.00;95519.09;4895854;28;103638;-59
2022/12/13 09:03:47;;;;;;;21.37;11.13;;;;;;;-7.41;100.00;95521.19;4912822;28;102513;-59
2022/12/13 09:06:16;;;;;;;24.23;12.17;;;;;;;-7.15;100.00;95527.00;4913357;28;101731;-59
2022/12/13 09:08:43;;;;;;;19.93;11.23;;;;;;;-7.03;100.00;95525.66;4915878;28;102361;-59
2022/12/13 09:11:11;;;;;;;12.30;8.43;;;;;;;-7.08;100.00;95527.97;4895720;28;101875;-59
2022/12/13 09:13:39;;;;;;;13.27;8.87;;;;;;;-6.74;100.00;95538.88;4913857;28;101959;-59
2022/12/13 09:16:09;;;;;;;14.00;8.53;;;;;;;-6.51;100.00;95531.19;4895983;28;105303;-59
2022/12/13 09:18:35;;;;;;;12.57;9.17;;;;;;;-6.52;100.00;95535.56;4913903;28;101767;-58
2022/12/13 09:21:07;;;;;;;13.40;8.93;;;;;;;-6.81;100.00;95535.31;4896487;28;103996;-58
2022/12/13 09:23:34;;;;;;;12.93;8.60;;;;;;;-6.57;100.00;95530.09;4913262;28;102691;-59
2022/12/13 09:26:01;;;;;;;16.30;8.97;;;;;;;-6.62;100.00;95532.38;4896607;28;101807;-59
2022/12/13 09:28:30;;;;;;;13.70;8.53;;;;;;;-6.62;100.00;95534.94;4913894;28;102856;-59
2022/12/13 09:30:57;;;;;;;11.93;8.23;;;;;;;-6.48;100.00;95539.44;4916501;28;102813;-59
2022/12/13 09:33:25;;;;;;;15.33;9.03;;;;;;;-6.57;100.00;95540.44;4913102;28;102321;-59
2022/12/13 09:35:52;;;;;;;14.77;9.40;;;;;;;-6.50;100.00;95538.00;4913154;28;102636;-59
2022/12/13 09:38:21;;;;;;;12.17;8.80;;;;;;;-6.17;100.00;95540.25;4896354;28;101876;-59
2022/12/13 09:40:51;;;;;;;12.90;8.63;;;;;;;-5.93;100.00;95537.56;4913645;28;102612;-59
2022/12/13 09:43:23;;;;;;;13.67;9.63;;;;;;;-6.00;100.00;95530.63;4912935;28;103030;-59
2022/12/13 09:45:51;;;;;;;12.23;9.63;;;;;;;-5.89;100.00;95532.84;4896272;28;101804;-59
2022/12/13 09:48:21;;;;;;;14.90;9.83;;;;;;;-5.87;100.00;95526.50;4895989;28;105571;-59
2022/12/13 09:50:49;;;;;;;14.63;9.20;;;;;;;-5.77;100.00;95532.25;4895503;28;105453;-59
2022/12/13 09:53:18;;;;;;;11.73;7.97;;;;;;;-5.77;100.00;95527.06;4916795;28;101822;-59
2022/12/13 09:55:48;;;;;;;15.30;10.33;;;;;;;-6.16;100.00;95520.38;4913244;28;102499;-59
2022/12/13 09:58:20;;;;;;;16.53;9.97;;;;;;;-6.35;100.00;95519.00;4894655;28;102522;-59
2022/12/13 10:00:49;;;;;;;14.63;9.63;;;;;;;-6.39;100.00;95515.13;4912415;28;102605;-60
2022/12/13 10:03:19;;;;;;;11.80;9.00;;;;;;;-6.02;100.00;95506.69;4895426;28;105088;-60
2022/12/13 10:05:56;;;;;;;13.23;8.60;;;;;;;-5.96;100.00;95506.84;4895941;28;102692;-60
2022/12/13 10:08:27;;;;;;;12.47;8.70;;;;;;;-6.10;100.00;95499.00;4913399;28;102579;-60
2022/12/13 10:10:55;;;;;;;11.57;7.77;;;;;;;-6.20;100.00;95504.41;4912835;28;103245;-60
2022/12/13 10:13:32;;;;;;;10.37;7.73;;;;;;;-6.86;100.00;95504.03;4913085;28;102217;-60
2022/12/13 10:16:03;;;;;;;12.47;8.03;;;;;;;-6.88;100.00;95503.34;4898511;28;105118;-60
2022/12/13 10:18:35;;;;;;;11.60;8.33;;;;;;;-6.45;100.00;95505.47;4894938;28;101877;-60
2022/12/13 10:21:05;;;;;;;10.80;8.07;;;;;;;-5.98;100.00;95501.03;4894171;28;105373;-60
2022/12/13 10:23:32;;;;;;;13.87;8.07;;;;;;;-6.03;100.00;95495.56;4891654;28;105301;-60
2022/12/13 10:26:01;;;;;;;11.20;8.60;;;;;;;-6.50;100.00;95496.63;4912051;28;102222;-60
2022/12/13 10:28:31;;;;;;;10.70;8.20;;;;;;;-6.31;100.00;95491.03;4891481;28;105289;-60
2022/12/13 10:30:59;;;;;;;11.90;8.80;;;;;;;-6.39;100.00;95489.28;4893549;28;105820;-60
2022/12/13 10:33:30;;;;;;;14.57;8.90;;;;;;;-6.78;100.00;95490.25;4894693;28;102293;-60
2022/12/13 10:36:16;;;;;;;12.10;8.33;;;;;;;-6.90;100.00;95484.66;4898015;28;105570;-60
2022/12/13 10:38:45;;;;;;;17.47;10.00;;;;;;;-6.54;100.00;95485.78;4912472;28;101872;-60
2022/12/13 10:41:34;;;;;;;16.23;9.57;;;;;;;-6.46;100.00;95493.53;4911422;28;102412;-60
2022/12/13 10:44:24;;;;;;;12.23;8.97;;;;;;;-6.58;100.00;95489.69;4909935;28;103095;-60
2022/12/13 10:46:59;;;;;;;13.10;9.40;;;;;;;-6.26;100.00;95484.38;4906337;28;101879;-60
2022/12/13 10:49:29;;;;;;;15.47;10.27;;;;;;;-5.98;100.00;95475.16;4894383;28;105601;-60
2022/12/13 10:51:59;;;;;;;17.00;9.67;;;;;;;-6.32;100.00;95479.06;4911197;28;102527;-60
2022/12/13 10:54:29;;;;;;;12.30;9.63;;;;;;;-5.81;100.00;95474.06;4894889;28;102167;-60
2022/12/13 10:56:59;;;;;;;15.13;10.13;;;;;;;-5.52;100.00;95468.94;4912472;28;102580;-60
2022/12/13 10:59:32;;;;;;;14.90;10.03;;;;;;;-5.96;100.00;95465.44;4914471;28;102699;-60
2022/12/13 11:02:00;;;;;;;12.60;9.50;;;;;;;-5.97;100.00;95466.41;4911802;28;102423;-60
2022/12/13 11:04:30;;;;;;;13.00;10.17;;;;;;;-5.36;100.00;95463.63;4908522;28;102716;-60
2022/12/13 11:06:59;;;;;;;13.40;9.63;;;;;;;-5.09;100.00;95455.25;4903821;28;102235;-60
2022/12/13 11:09:28;;;;;;;14.17;9.30;;;;;;;-5.42;100.00;95459.16;4878628;28;105226;-60
2022/12/13 11:12:00;;;;;;;15.43;9.50;;;;;;;-5.37;100.00;95463.78;4885950;28;105740;-60
2022/12/13 11:14:32;;;;;;;12.27;9.27;;;;;;;-5.32;100.00;95456.28;4912427;28;101896;-60